Time;durP1;ratioP1;P1;durP2;ratioP2;P2;SDS_P1;SDS_P2;PMS_P1;PMS_P2;Temp;Humidity;BMP_temperature;BMP_pressure;BME280_temperature;BME280_humidity;BME280_pressure;Samples;Min_cycle;Max_cycle;Signal;HPM_P1;HPM_P2
2021/03/29 00:01:29;;;;;;;5.03;4.03;;;10.00;99.90;;;;;;5021539;28;20443;-73
2021/03/29 00:03:55;;;;;;;5.20;3.20;;;10.00;99.90;;;;;;5021506;28;20424;-74
2021/03/29 00:06:23;;;;;;;6.20;3.67;;;9.90;99.90;;;;;;5004393;28;20209;-74
2021/03/29 00:08:50;;;;;;;6.40;3.60;;;9.90;99.90;;;;;;5020914;28;20171;-73
2021/03/29 00:11:17;;;;;;;8.77;4.47;;;9.80;99.90;;;;;;5021556;28;20490;-74
2021/03/29 00:13:43;;;;;;;5.63;3.73;;;9.80;99.90;;;;;;5020913;28;20424;-74
2021/03/29 00:16:10;;;;;;;10.33;3.47;;;10.00;99.90;;;;;;5020443;28;20434;-73
2021/03/29 00:18:36;;;;;;;9.83;4.27;;;9.90;99.90;;;;;;5021192;28;20183;-74
2021/03/29 00:21:07;;;;;;;5.53;3.87;;;9.90;99.90;;;;;;5021768;28;20487;-74
2021/03/29 00:23:34;;;;;;;4.17;3.20;;;9.90;99.90;;;;;;5020080;28;20194;-73
2021/03/29 00:26:00;;;;;;;5.10;3.67;;;10.00;99.90;;;;;;5018851;28;20429;-74
2021/03/29 00:28:26;;;;;;;7.27;3.30;;;10.00;99.90;;;;;;5024993;28;20460;-74
2021/03/29 00:30:52;;;;;;;7.47;3.60;;;10.00;99.90;;;;;;5024550;28;20544;-74
2021/03/29 00:33:20;;;;;;;7.80;4.57;;;9.90;99.90;;;;;;5024746;28;20432;-73
2021/03/29 00:35:48;;;;;;;4.10;3.70;;;9.80;99.90;;;;;;5025372;28;20658;-74
2021/03/29 00:38:16;;;;;;;4.70;3.80;;;10.00;99.90;;;;;;5024290;28;20986;-74
2021/03/29 00:40:48;;;;;;;5.47;3.60;;;10.00;99.90;;;;;;5025589;28;20784;-74
2021/03/29 00:43:19;;;;;;;12.30;4.73;;;9.90;99.90;;;;;;5024120;28;20452;-74
2021/03/29 00:45:47;;;;;;;6.27;4.10;;;9.90;99.90;;;;;;5024513;28;20498;-73
2021/03/29 00:48:15;;;;;;;4.83;3.57;;;9.90;99.90;;;;;;5024548;28;20479;-74
2021/03/29 00:51:02;;;;;;;5.17;3.60;;;9.90;99.90;;;;;;5024062;28;20902;-74
2021/03/29 00:53:30;;;;;;;7.00;3.57;;;9.80;99.90;;;;;;5024246;28;20440;-74
2021/03/29 00:55:56;;;;;;;7.33;4.10;;;9.90;99.90;;;;;;5023491;28;20524;-74
2021/03/29 00:58:24;;;;;;;4.10;3.70;;;10.00;99.90;;;;;;5024834;28;20435;-74
2021/03/29 01:01:00;;;;;;;8.20;4.30;;;10.10;99.90;;;;;;5014171;28;20881;-74
2021/03/29 01:03:30;;;;;;;7.10;3.80;;;10.10;99.90;;;;;;5023460;28;20465;-73
2021/03/29 01:06:10;;;;;;;9.67;4.03;;;10.10;99.90;;;;;;5023263;28;20461;-73
2021/03/29 01:08:41;;;;;;;9.03;4.17;;;10.00;99.90;;;;;;5024547;28;20460;-73
2021/03/29 01:11:10;;;;;;;8.53;4.20;;;9.90;99.90;;;;;;5024153;28;20429;-74
2021/03/29 01:13:42;;;;;;;8.60;4.37;;;10.00;99.90;;;;;;5024412;28;20441;-73
2021/03/29 01:16:09;;;;;;;7.90;4.33;;;10.00;99.90;;;;;;5024017;28;20474;-73
2021/03/29 01:18:37;;;;;;;4.43;3.57;;;10.10;99.90;;;;;;5023609;28;20444;-74
2021/03/29 01:21:34;;;;;;;5.83;3.60;;;10.00;99.90;;;;;;5023563;28;20436;-73
2021/03/29 01:24:07;;;;;;;8.80;5.60;;;10.00;99.90;;;;;;5024395;28;20433;-73
2021/03/29 01:26:42;;;;;;;8.20;3.90;;;9.90;99.90;;;;;;5021567;28;20428;-74
2021/03/29 01:29:09;;;;;;;8.30;4.40;;;10.00;99.90;;;;;;5023938;28;20439;-74
2021/03/29 01:31:37;;;;;;;5.53;3.37;;;9.90;99.90;;;;;;5024198;28;20890;-74
2021/03/29 01:34:05;;;;;;;7.50;3.63;;;9.90;99.90;;;;;;5025255;28;20437;-74
2021/03/29 01:36:32;;;;;;;6.13;3.80;;;10.00;99.90;;;;;;5022292;28;20459;-73
2021/03/29 01:38:59;;;;;;;7.47;4.20;;;10.00;99.90;;;;;;5022778;28;20565;-74
2021/03/29 01:41:26;;;;;;;7.60;4.03;;;9.90;99.90;;;;;;5022809;28;20435;-74
2021/03/29 01:43:52;;;;;;;5.63;3.80;;;9.80;99.90;;;;;;5023947;28;20822;-73
2021/03/29 01:46:19;;;;;;;11.93;4.27;;;9.80;99.90;;;;;;5022955;28;20972;-74
2021/03/29 01:48:45;;;;;;;7.90;3.80;;;9.90;99.90;;;;;;5023612;28;20527;-73
2021/03/29 01:51:13;;;;;;;7.97;4.67;;;9.90;99.90;;;;;;5023051;28;20429;-73
2021/03/29 01:53:40;;;;;;;4.63;4.33;;;9.90;99.90;;;;;;5022092;28;20453;-73
2021/03/29 01:56:06;;;;;;;10.90;3.90;;;9.80;99.90;;;;;;5023067;28;20443;-73
2021/03/29 01:58:32;;;;;;;12.00;4.40;;;9.90;99.90;;;;;;5020185;28;20934;-74
2021/03/29 02:01:05;;;;;;;7.87;4.37;;;9.90;99.90;;;;;;5023048;28;20174;-74
2021/03/29 02:03:31;;;;;;;7.23;4.40;;;10.00;99.90;;;;;;5023036;28;20272;-74
2021/03/29 02:05:58;;;;;;;3.80;3.53;;;9.90;99.90;;;;;;5022940;28;20432;-73
2021/03/29 02:08:26;;;;;;;15.37;5.37;;;9.90;99.90;;;;;;5022687;28;20426;-74
2021/03/29 02:10:52;;;;;;;6.87;4.20;;;9.90;99.90;;;;;;5021265;28;20785;-74
2021/03/29 02:13:20;;;;;;;9.30;4.90;;;9.90;99.90;;;;;;5023617;28;20406;-73
2021/03/29 02:15:49;;;;;;;4.00;3.60;;;10.00;99.90;;;;;;5021918;28;20436;-73
2021/03/29 02:18:21;;;;;;;5.13;4.73;;;9.90;99.90;;;;;;5023224;28;20428;-73
2021/03/29 02:20:48;;;;;;;15.27;5.17;;;9.90;99.90;;;;;;5023825;28;20501;-74
2021/03/29 02:23:17;;;;;;;5.97;4.27;;;9.90;99.90;;;;;;5021608;28;20457;-74
2021/03/29 02:25:46;;;;;;;6.67;3.83;;;9.90;99.90;;;;;;5021720;28;20469;-73
2021/03/29 02:28:12;;;;;;;8.43;4.00;;;10.00;99.90;;;;;;5022922;28;20431;-75
2021/03/29 02:30:41;;;;;;;9.77;4.33;;;10.00;99.90;;;;;;5023263;28;20804;-73
2021/03/29 02:33:11;;;;;;;7.70;4.27;;;9.90;99.90;;;;;;5023254;28;20931;-73
2021/03/29 02:35:37;;;;;;;4.97;4.30;;;10.00;99.90;;;;;;5022777;28;20872;-73
2021/03/29 02:38:06;;;;;;;8.43;5.00;;;10.00;99.90;;;;;;5022459;28;20940;-74
2021/03/29 02:40:32;;;;;;;5.13;3.80;;;9.90;99.90;;;;;;5024026;28;20430;-74
2021/03/29 02:42:59;;;;;;;9.07;4.27;;;10.00;99.90;;;;;;5022400;28;20483;-74
2021/03/29 02:45:31;;;;;;;4.23;3.90;;;10.00;99.90;;;;;;5020242;28;20185;-73
2021/03/29 02:48:03;;;;;;;6.10;4.10;;;10.10;99.90;;;;;;5023026;28;20462;-74
2021/03/29 02:50:31;;;;;;;12.30;4.90;;;10.10;99.90;;;;;;5021473;28;20422;-73
2021/03/29 02:52:59;;;;;;;6.70;4.60;;;10.00;99.90;;;;;;5022937;28;20941;-73
2021/03/29 02:55:27;;;;;;;5.40;4.47;;;10.00;99.90;;;;;;5021327;28;20448;-73
2021/03/29 02:57:57;;;;;;;9.23;4.10;;;9.90;99.90;;;;;;5020749;28;20436;-73
2021/03/29 03:00:25;;;;;;;6.00;4.33;;;9.90;99.90;;;;;;5021043;28;20431;-75
2021/03/29 03:02:53;;;;;;;7.50;4.63;;;9.90;99.90;;;;;;5021462;28;20461;-73
2021/03/29 03:05:21;;;;;;;5.83;4.50;;;9.80;99.90;;;;;;5021702;28;20440;-74
2021/03/29 03:07:47;;;;;;;7.80;4.73;;;9.80;99.90;;;;;;5022760;28;20432;-74
2021/03/29 03:10:14;;;;;;;5.63;4.23;;;9.90;99.90;;;;;;5022916;28;20443;-73
2021/03/29 03:12:41;;;;;;;8.57;4.07;;;10.00;99.90;;;;;;5021430;28;20463;-73
2021/03/29 03:15:11;;;;;;;9.13;4.77;;;10.00;99.90;;;;;;5021412;28;20448;-74
2021/03/29 03:17:37;;;;;;;6.10;3.37;;;10.10;99.90;;;;;;5022813;28;20457;-73
2021/03/29 03:20:07;;;;;;;6.53;3.80;;;10.00;99.90;;;;;;5021784;28;20890;-73
2021/03/29 03:22:33;;;;;;;5.90;3.40;;;10.10;99.90;;;;;;5021697;28;20918;-73
2021/03/29 03:24:58;;;;;;;6.43;4.40;;;10.00;99.90;;;;;;5020315;28;20436;-73
2021/03/29 03:27:24;;;;;;;4.17;3.77;;;10.00;99.90;;;;;;5020178;28;20189;-73
2021/03/29 03:29:50;;;;;;;5.63;3.90;;;10.10;99.90;;;;;;5021854;28;20549;-73
2021/03/29 03:32:17;;;;;;;6.43;3.93;;;10.10;99.90;;;;;;5022095;28;20189;-73
2021/03/29 03:34:43;;;;;;;7.40;4.10;;;10.00;99.90;;;;;;5021711;28;20446;-73
2021/03/29 03:37:15;;;;;;;8.33;3.87;;;10.00;99.90;;;;;;5022172;28;20470;-73
2021/03/29 03:39:43;;;;;;;7.50;3.70;;;10.00;99.90;;;;;;5021673;28;20456;-73
2021/03/29 03:42:10;;;;;;;7.63;3.77;;;10.00;99.90;;;;;;5021609;28;20483;-74
2021/03/29 03:44:37;;;;;;;4.17;3.17;;;10.00;99.90;;;;;;5021534;28;20428;-73
2021/03/29 03:47:04;;;;;;;9.83;4.00;;;10.00;99.90;;;;;;5021577;28;20421;-74
2021/03/29 03:49:32;;;;;;;5.13;3.50;;;10.10;99.90;;;;;;5022417;28;20433;-73
2021/03/29 03:51:58;;;;;;;8.07;3.83;;;10.20;99.90;;;;;;5021692;28;20463;-73
2021/03/29 03:54:25;;;;;;;5.83;3.57;;;10.20;99.90;;;;;;5020833;28;20457;-73
2021/03/29 03:56:50;;;;;;;4.07;3.50;;;10.10;99.90;;;;;;5019836;28;20433;-73
2021/03/29 03:59:16;;;;;;;5.43;3.50;;;10.10;99.90;;;;;;5021917;28;20822;-73
2021/03/29 04:02:05;;;;;;;6.30;3.33;;;10.20;99.90;;;;;;5021926;28;20644;-73
2021/03/29 04:04:31;;;;;;;7.07;3.90;;;10.10;99.90;;;;;;5026094;28;20901;-73
2021/03/29 04:06:58;;;;;;;5.93;3.37;;;10.10;99.90;;;;;;5023828;28;20442;-73
2021/03/29 04:09:34;;;;;;;5.10;3.03;;;10.10;99.90;;;;;;5025776;28;20268;-73
2021/03/29 04:12:04;;;;;;;8.23;3.53;;;10.20;99.90;;;;;;5025343;28;20955;-73
2021/03/29 04:14:30;;;;;;;5.23;3.37;;;10.20;99.90;;;;;;5025062;28;20963;-73
2021/03/29 04:16:56;;;;;;;5.80;3.07;;;10.20;99.90;;;;;;5025973;28;20437;-73
2021/03/29 04:19:21;;;;;;;6.27;3.27;;;10.20;99.90;;;;;;5024659;28;20187;-73
2021/03/29 04:21:47;;;;;;;7.90;3.57;;;10.20;99.90;;;;;;5025743;28;20205;-73
2021/03/29 04:24:12;;;;;;;6.43;2.80;;;10.40;99.90;;;;;;5023582;28;20174;-73
2021/03/29 04:26:41;;;;;;;4.37;3.30;;;10.30;99.90;;;;;;5023567;28;20593;-73
2021/03/29 04:29:07;;;;;;;5.00;2.57;;;10.20;99.90;;;;;;5025489;28;20490;-73
2021/03/29 04:31:33;;;;;;;3.83;2.60;;;10.20;99.90;;;;;;5025143;28;20429;-74
2021/03/29 04:33:59;;;;;;;11.37;3.60;;;10.20;99.90;;;;;;5025490;28;20445;-73
2021/03/29 04:36:24;;;;;;;8.50;3.00;;;10.30;99.90;;;;;;5024681;28;20436;-73
2021/03/29 04:38:50;;;;;;;3.07;2.70;;;10.30;99.90;;;;;;5024018;28;20182;-73
2021/03/29 04:41:16;;;;;;;10.83;2.93;;;10.30;99.90;;;;;;5024226;28;20174;-73
2021/03/29 04:43:41;;;;;;;3.83;2.67;;;10.30;99.90;;;;;;5024415;28;20549;-73
2021/03/29 04:46:07;;;;;;;3.40;2.73;;;10.30;99.90;;;;;;5024592;28;20257;-73
2021/03/29 04:48:33;;;;;;;7.77;3.07;;;10.30;99.90;;;;;;5024792;28;20505;-73
2021/03/29 04:50:58;;;;;;;10.70;3.40;;;10.30;99.90;;;;;;5024880;28;20197;-74
2021/03/29 04:53:24;;;;;;;6.83;3.20;;;10.30;99.90;;;;;;5024214;28;20216;-74
2021/03/29 04:55:50;;;;;;;7.73;3.43;;;10.20;99.90;;;;;;5024230;28;20190;-73
2021/03/29 04:58:15;;;;;;;6.70;3.40;;;10.20;99.90;;;;;;5024031;28;20212;-73
2021/03/29 05:00:41;;;;;;;8.57;2.90;;;10.10;99.90;;;;;;5023859;28;20611;-73
2021/03/29 05:03:07;;;;;;;3.93;2.87;;;10.10;99.90;;;;;;5024313;28;20202;-73
2021/03/29 05:05:32;;;;;;;5.63;3.50;;;10.10;99.90;;;;;;5022577;28;20527;-72
2021/03/29 05:07:58;;;;;;;6.40;3.53;;;10.10;99.90;;;;;;5024071;28;20209;-73
2021/03/29 05:10:23;;;;;;;8.23;3.07;;;10.10;99.90;;;;;;5023994;28;20192;-74
2021/03/29 05:12:49;;;;;;;4.23;3.37;;;10.30;99.90;;;;;;5024388;28;20190;-73
2021/03/29 05:15:15;;;;;;;5.03;2.87;;;10.20;99.90;;;;;;5023499;28;20205;-73
2021/03/29 05:17:41;;;;;;;5.53;3.27;;;10.20;99.90;;;;;;5024625;28;20316;-73
2021/03/29 05:20:07;;;;;;;7.23;3.70;;;10.30;99.90;;;;;;5023851;28;20193;-73
2021/03/29 05:22:33;;;;;;;5.60;2.60;;;10.30;99.90;;;;;;5023430;28;20220;-73
2021/03/29 05:24:59;;;;;;;3.00;2.20;;;10.30;99.90;;;;;;5023118;28;20429;-73
2021/03/29 05:27:25;;;;;;;7.07;3.43;;;10.30;99.90;;;;;;5024927;28;20413;-73
2021/03/29 05:29:52;;;;;;;6.00;2.83;;;10.30;99.90;;;;;;5023500;28;20191;-74
2021/03/29 05:32:19;;;;;;;2.53;2.33;;;10.30;99.90;;;;;;5024518;28;20179;-74
2021/03/29 05:34:50;;;;;;;6.17;3.50;;;10.40;99.90;;;;;;5023085;28;20445;-72
2021/03/29 05:37:17;;;;;;;5.37;3.50;;;10.30;99.90;;;;;;5023728;28;20436;-73
2021/03/29 05:39:51;;;;;;;8.17;3.00;;;10.30;99.90;;;;;;5024657;28;20433;-73
2021/03/29 05:42:17;;;;;;;6.90;3.30;;;10.30;99.90;;;;;;5024645;28;20478;-73
2021/03/29 05:44:44;;;;;;;6.30;2.70;;;10.30;99.90;;;;;;5023436;28;20426;-73
2021/03/29 05:47:10;;;;;;;4.40;3.10;;;10.40;99.90;;;;;;5023355;28;20436;-73
2021/03/29 05:49:36;;;;;;;11.93;3.67;;;10.40;99.90;;;;;;5023176;28;20432;-73
2021/03/29 05:52:03;;;;;;;8.33;3.30;;;10.30;99.90;;;;;;5024256;28;20185;-73
2021/03/29 05:54:29;;;;;;;6.23;3.13;;;10.50;99.90;;;;;;5023752;28;21110;-73
2021/03/29 05:56:55;;;;;;;3.90;3.13;;;10.50;99.90;;;;;;5022936;28;20461;-73
2021/03/29 05:59:25;;;;;;;6.60;3.50;;;10.50;99.90;;;;;;5024688;28;20479;-74
2021/03/29 06:01:55;;;;;;;6.17;4.83;;;10.50;99.90;;;;;;5021964;28;20444;-73
2021/03/29 06:04:42;;;;;;;6.00;3.10;;;10.50;99.90;;;;;;5005141;28;20425;-73
2021/03/29 06:07:22;;;;;;;10.10;3.30;;;10.70;99.90;;;;;;5022129;28;20421;-73
2021/03/29 06:09:51;;;;;;;9.43;3.27;;;10.70;99.90;;;;;;5022215;28;20442;-73
2021/03/29 06:12:18;;;;;;;8.37;3.13;;;10.60;99.90;;;;;;5022219;28;20467;-73
2021/03/29 06:14:45;;;;;;;4.83;2.83;;;10.50;99.90;;;;;;5023202;28;20475;-73
2021/03/29 06:17:20;;;;;;;6.90;3.60;;;10.60;99.90;;;;;;5023583;28;20437;-73
2021/03/29 06:19:45;;;;;;;5.03;3.90;;;10.70;99.90;;;;;;5023995;28;20463;-73
2021/03/29 06:22:28;;;;;;;7.43;3.13;;;10.70;99.90;;;;;;5024338;28;21032;-73
2021/03/29 06:24:53;;;;;;;7.50;2.87;;;10.80;99.90;;;;;;5021033;28;20174;-74
2021/03/29 06:27:20;;;;;;;10.53;3.77;;;10.90;99.90;;;;;;5022613;28;20436;-73
2021/03/29 06:29:46;;;;;;;13.17;3.10;;;10.80;99.90;;;;;;5022412;28;20609;-73
2021/03/29 06:32:19;;;;;;;6.00;3.60;;;10.80;99.90;;;;;;5023765;28;20436;-73
2021/03/29 06:34:46;;;;;;;6.90;2.97;;;10.90;99.90;;;;;;5021701;28;20235;-73
2021/03/29 06:37:12;;;;;;;6.77;2.67;;;10.90;99.90;;;;;;5022155;28;20433;-73
2021/03/29 06:39:40;;;;;;;6.43;3.10;;;10.90;99.90;;;;;;5022406;28;20421;-73
2021/03/29 06:42:06;;;;;;;7.47;4.57;;;11.00;99.90;;;;;;5023636;28;20460;-73
2021/03/29 06:44:34;;;;;;;9.93;3.47;;;10.90;99.90;;;;;;5021017;28;20437;-73
2021/03/29 06:47:14;;;;;;;4.70;3.20;;;11.00;99.90;;;;;;5021907;28;20425;-73
2021/03/29 06:49:48;;;;;;;8.63;3.50;;;11.00;99.90;;;;;;5022420;28;20422;-73
2021/03/29 06:52:31;;;;;;;9.70;3.07;;;11.00;99.90;;;;;;5019836;28;20488;-73
2021/03/29 06:55:26;;;;;;;4.93;3.33;;;11.10;99.90;;;;;;5019586;28;20445;-74
2021/03/29 06:58:05;;;;;;;9.10;3.40;;;11.20;99.90;;;;;;5021322;28;20839;-73
2021/03/29 07:00:36;;;;;;;5.90;3.10;;;11.20;99.90;;;;;;5021284;28;20420;-73
2021/03/29 07:03:04;;;;;;;3.03;2.83;;;11.20;99.90;;;;;;5021152;28;20796;-73
2021/03/29 07:05:31;;;;;;;7.47;2.90;;;11.30;99.90;;;;;;5020939;28;20429;-73
2021/03/29 07:07:59;;;;;;;10.30;3.70;;;11.30;99.90;;;;;;5020469;28;20437;-73
2021/03/29 07:10:25;;;;;;;10.27;3.40;;;11.40;99.90;;;;;;5020871;28;20435;-73
2021/03/29 07:12:53;;;;;;;11.17;4.30;;;11.50;99.90;;;;;;5020386;28;20444;-73
2021/03/29 07:15:20;;;;;;;12.63;3.37;;;11.60;99.90;;;;;;5017432;28;20440;-73
2021/03/29 07:17:47;;;;;;;7.13;3.30;;;11.60;99.90;;;;;;5020536;28;20431;-73
2021/03/29 07:20:15;;;;;;;4.80;4.13;;;11.60;99.90;;;;;;5021514;28;20947;-73
2021/03/29 07:22:42;;;;;;;9.63;3.80;;;11.70;99.90;;;;;;5021041;28;20905;-73
2021/03/29 07:25:15;;;;;;;6.80;3.50;;;11.80;99.90;;;;;;5019248;28;20429;-73
2021/03/29 07:27:48;;;;;;;7.33;3.37;;;11.70;99.90;;;;;;5020260;28;20428;-73
2021/03/29 07:30:15;;;;;;;11.97;4.37;;;11.80;99.90;;;;;;5022075;28;20936;-73
2021/03/29 07:32:51;;;;;;;3.73;3.17;;;11.80;99.90;;;;;;5021104;28;20467;-73
2021/03/29 07:35:19;;;;;;;9.27;4.17;;;11.80;99.90;;;;;;5020522;28;20494;-73
2021/03/29 07:37:57;;;;;;;8.37;4.13;;;11.70;99.90;;;;;;5020203;28;20436;-73
2021/03/29 07:40:36;;;;;;;9.57;3.50;;;11.80;99.90;;;;;;5021788;28;20432;-73
2021/03/29 07:43:14;;;;;;;12.27;3.63;;;11.80;99.90;;;;;;5020468;28;20453;-73
2021/03/29 07:45:46;;;;;;;10.40;3.83;;;11.90;99.90;;;;;;5021346;28;20429;-73
2021/03/29 07:48:37;;;;;;;4.50;3.97;;;11.90;99.90;;;;;;5021763;28;20756;-73
2021/03/29 07:51:13;;;;;;;3.57;3.27;;;12.10;99.90;;;;;;5020985;28;20808;-73
2021/03/29 07:54:01;;;;;;;7.43;3.23;;;12.20;99.90;;;;;;5020692;28;20955;-74
2021/03/29 07:56:35;;;;;;;4.33;3.27;;;12.30;99.90;;;;;;5018194;28;20535;-74
2021/03/29 07:59:03;;;;;;;7.63;4.10;;;12.20;99.90;;;;;;5019815;28;21098;-73
2021/03/29 08:01:48;;;;;;;8.00;3.83;;;12.30;99.90;;;;;;5018200;28;20439;-73
2021/03/29 08:04:14;;;;;;;7.27;3.50;;;12.20;99.90;;;;;;5019090;28;21000;-73
2021/03/29 08:06:44;;;;;;;12.90;4.57;;;12.10;99.90;;;;;;5018190;28;20424;-73
2021/03/29 08:09:13;;;;;;;9.53;4.17;;;12.10;99.90;;;;;;5017667;28;20178;-73
2021/03/29 08:11:50;;;;;;;7.23;4.00;;;12.10;99.90;;;;;;5017289;28;20437;-73
2021/03/29 08:14:31;;;;;;;3.77;3.30;;;12.00;99.90;;;;;;5014019;28;20440;-73
2021/03/29 08:16:57;;;;;;;7.97;4.60;;;12.10;99.90;;;;;;5009608;28;20433;-73
2021/03/29 08:19:29;;;;;;;8.70;3.23;;;12.20;99.90;;;;;;5015188;28;20448;-74
2021/03/29 08:21:59;;;;;;;5.63;3.87;;;12.20;99.90;;;;;;5022269;28;20190;-73
2021/03/29 08:24:31;;;;;;;9.43;3.87;;;12.20;99.90;;;;;;5021792;28;20540;-74
2021/03/29 08:27:03;;;;;;;10.00;4.80;;;12.20;99.90;;;;;;5019119;28;20432;-74
2021/03/29 08:29:33;;;;;;;4.63;3.50;;;12.40;99.90;;;;;;5016207;28;20508;-74
2021/03/29 08:32:36;;;;;;;6.00;3.70;;;12.40;99.90;;;;;;5015803;28;20440;-74
2021/03/29 08:35:21;;;;;;;8.13;3.87;;;12.50;99.90;;;;;;5017733;28;20424;-73
2021/03/29 08:37:50;;;;;;;4.47;3.40;;;12.60;99.90;;;;;;5017198;28;20432;-74
2021/03/29 08:40:26;;;;;;;7.30;3.57;;;12.60;99.90;;;;;;5021494;28;20435;-73
2021/03/29 08:42:54;;;;;;;7.40;3.93;;;12.60;99.90;;;;;;5017868;28;20591;-74
2021/03/29 08:45:22;;;;;;;6.60;3.60;;;12.70;99.90;;;;;;5018866;28;20432;-74
2021/03/29 08:47:50;;;;;;;9.53;4.30;;;12.70;99.90;;;;;;5018931;28;20495;-74
2021/03/29 08:50:18;;;;;;;9.40;3.23;;;12.80;99.90;;;;;;5024730;28;20961;-74
2021/03/29 08:52:47;;;;;;;11.17;4.00;;;12.80;99.90;;;;;;5023931;28;20534;-73
2021/03/29 08:55:19;;;;;;;8.27;3.97;;;12.90;99.90;;;;;;5022715;28;23267;-74
2021/03/29 08:57:46;;;;;;;12.37;3.80;;;12.90;99.90;;;;;;5022184;28;20772;-73
2021/03/29 09:00:16;;;;;;;9.60;4.27;;;12.90;99.90;;;;;;5024835;28;20428;-73
2021/03/29 09:02:42;;;;;;;6.23;3.90;;;12.80;99.90;;;;;;5020602;28;20449;-74
2021/03/29 09:05:10;;;;;;;6.30;4.23;;;12.90;99.90;;;;;;5022203;28;20463;-74
2021/03/29 09:07:43;;;;;;;7.80;3.87;;;12.90;99.90;;;;;;5024468;28;20432;-73
2021/03/29 09:10:34;;;;;;;4.90;3.60;;;12.90;99.90;;;;;;5022370;28;20429;-74
2021/03/29 09:13:02;;;;;;;6.07;4.27;;;12.90;99.90;;;;;;5013010;28;20818;-74
2021/03/29 09:15:31;;;;;;;5.77;3.53;;;12.90;99.90;;;;;;5022509;28;20502;-73
2021/03/29 09:18:08;;;;;;;7.93;3.83;;;13.00;99.90;;;;;;5020437;28;20805;-73
2021/03/29 09:20:36;;;;;;;5.87;3.33;;;13.10;99.90;;;;;;5019852;28;20481;-73
2021/03/29 09:23:03;;;;;;;7.60;3.70;;;13.10;99.90;;;;;;5023146;28;20453;-74
2021/03/29 09:25:35;;;;;;;6.80;4.27;;;13.20;99.90;;;;;;5021681;28;20429;-74
2021/03/29 09:28:11;;;;;;;4.73;3.63;;;13.30;99.90;;;;;;5023550;28;20421;-74
2021/03/29 09:30:37;;;;;;;11.23;4.97;;;13.50;99.90;;;;;;5023880;28;20833;-73
2021/03/29 09:33:03;;;;;;;4.40;4.00;;;13.60;99.90;;;;;;5022494;28;20433;-73
2021/03/29 09:35:28;;;;;;;5.50;3.67;;;13.70;99.90;;;;;;5019415;28;20182;-73
2021/03/29 09:37:54;;;;;;;9.00;3.67;;;13.90;99.90;;;;;;5021802;28;20484;-73
2021/03/29 09:40:20;;;;;;;4.43;3.37;;;14.00;99.90;;;;;;5023798;28;20202;-74
2021/03/29 09:42:54;;;;;;;6.93;3.80;;;14.00;99.90;;;;;;5022965;28;20244;-73
2021/03/29 09:45:29;;;;;;;6.20;3.63;;;14.00;99.90;;;;;;5019596;28;20521;-73
2021/03/29 09:48:07;;;;;;;5.90;3.97;;;14.20;99.90;;;;;;5025171;28;20428;-73
2021/03/29 09:50:46;;;;;;;7.43;4.17;;;14.30;99.90;;;;;;5018742;28;20440;-74
2021/03/29 09:53:17;;;;;;;5.50;4.63;;;14.50;99.90;;;;;;5018868;28;20455;-74
2021/03/29 09:55:49;;;;;;;5.57;4.07;;;14.70;99.90;;;;;;5021859;28;20436;-73
2021/03/29 09:58:31;;;;;;;4.50;3.47;;;14.70;99.90;;;;;;5022466;28;20437;-74
2021/03/29 10:01:00;;;;;;;9.10;4.20;;;14.80;99.90;;;;;;5019791;28;20444;-74
2021/03/29 10:03:26;;;;;;;5.60;3.50;;;14.90;99.90;;;;;;5022002;28;20452;-74
2021/03/29 10:05:53;;;;;;;3.60;3.30;;;15.00;99.90;;;;;;5020435;28;20433;-74
2021/03/29 10:08:33;;;;;;;4.17;3.77;;;15.00;99.90;;;;;;5022611;28;20440;-74
2021/03/29 10:11:05;;;;;;;5.93;3.60;;;15.00;99.90;;;;;;5006598;28;20978;-75
2021/03/29 10:13:39;;;;;;;7.03;3.80;;;15.00;99.90;;;;;;5019701;28;20460;-75
2021/03/29 10:16:23;;;;;;;7.20;3.43;;;15.20;99.90;;;;;;5021005;28;20527;-75
2021/03/29 10:19:13;;;;;;;3.53;3.10;;;15.30;99.90;;;;;;5020759;28;20447;-75
2021/03/29 10:22:11;;;;;;;7.23;4.00;;;15.30;99.90;;;;;;5019703;28;20922;-76
2021/03/29 10:24:56;;;;;;;11.23;3.60;;;15.40;99.90;;;;;;5016872;28;20478;-71
2021/03/29 10:27:22;;;;;;;4.53;4.10;;;15.70;99.90;;;;;;5018962;28;20734;-71
2021/03/29 10:29:47;;;;;;;7.40;3.93;;;15.80;99.90;;;;;;5016908;28;20452;-73
2021/03/29 10:32:17;;;;;;;4.23;3.90;;;15.80;99.90;;;;;;5017823;28;20268;-72
2021/03/29 10:34:45;;;;;;;7.00;3.67;;;15.70;99.90;;;;;;5000829;28;20193;-72
2021/03/29 10:37:31;;;;;;;9.27;4.07;;;15.80;99.90;;;;;;5018078;28;20448;-75
2021/03/29 10:39:59;;;;;;;4.27;3.30;;;15.80;99.90;;;;;;5019665;28;20424;-75
2021/03/29 10:42:27;;;;;;;6.97;3.87;;;15.70;99.90;;;;;;5014763;28;21005;-71
2021/03/29 10:44:54;;;;;;;9.63;3.70;;;15.90;99.90;;;;;;5016941;28;20434;-73
2021/03/29 10:47:20;;;;;;;8.60;3.70;;;15.90;99.90;;;;;;5017496;28;20761;-73
2021/03/29 10:49:46;;;;;;;6.97;4.23;;;16.10;99.90;;;;;;5016076;28;20439;-72
2021/03/29 10:52:12;;;;;;;5.37;3.70;;;16.30;99.90;;;;;;5003184;28;20929;-73
2021/03/29 10:54:38;;;;;;;5.53;3.50;;;16.30;99.90;;;;;;5001873;28;20197;-74
2021/03/29 10:57:05;;;;;;;3.73;3.27;;;16.40;99.90;;;;;;5017281;28;20443;-72
2021/03/29 10:59:32;;;;;;;3.80;3.50;;;16.40;99.90;;;;;;5018387;28;20485;-70
2021/03/29 11:01:59;;;;;;;4.43;4.03;;;16.40;99.90;;;;;;5019511;28;20555;-75
2021/03/29 11:04:24;;;;;;;4.70;3.80;;;16.50;99.90;;;;;;5020464;28;20166;-77
2021/03/29 11:06:50;;;;;;;6.23;4.80;;;16.70;99.90;;;;;;5021277;28;20455;-77
2021/03/29 11:09:15;;;;;;;9.20;4.47;;;16.80;99.90;;;;;;5019811;28;20273;-76
2021/03/29 11:11:41;;;;;;;5.03;3.60;;;16.80;99.90;;;;;;5016599;28;21095;-75
2021/03/29 11:14:07;;;;;;;6.47;3.63;;;16.90;99.90;;;;;;5015182;28;20193;-74
2021/03/29 11:16:33;;;;;;;8.97;4.17;;;17.10;99.90;;;;;;5019622;28;20186;-75
2021/03/29 11:18:59;;;;;;;8.00;4.00;;;17.10;99.90;;;;;;5018174;28;20241;-75
2021/03/29 11:21:25;;;;;;;7.57;4.20;;;17.20;99.90;;;;;;5001211;28;22167;-75
2021/03/29 11:23:51;;;;;;;6.53;4.33;;;17.20;99.90;;;;;;5018705;28;20240;-75
2021/03/29 11:26:16;;;;;;;11.53;4.10;;;17.30;99.90;;;;;;5018498;28;20557;-75
2021/03/29 11:28:42;;;;;;;4.30;3.30;;;17.50;99.90;;;;;;5018594;28;20174;-75
2021/03/29 11:31:08;;;;;;;3.73;3.30;;;17.80;99.90;;;;;;5021850;28;20178;-75
2021/03/29 11:33:34;;;;;;;11.03;3.70;;;17.70;99.90;;;;;;5019742;28;20567;-74
2021/03/29 11:35:59;;;;;;;3.70;3.50;;;17.80;99.90;;;;;;5018723;28;20285;-74
2021/03/29 11:38:25;;;;;;;6.30;4.30;;;17.70;99.90;;;;;;5020513;28;20984;-73
2021/03/29 11:40:51;;;;;;;4.23;3.70;;;17.90;99.90;;;;;;5024243;28;20212;-75
2021/03/29 11:43:17;;;;;;;5.93;3.73;;;17.90;99.90;;;;;;5022553;28;20496;-71
2021/03/29 11:45:42;;;;;;;5.13;3.50;;;18.10;99.90;;;;;;5021166;28;20182;-73
2021/03/29 11:48:08;;;;;;;5.13;4.27;;;18.00;99.90;;;;;;5021188;28;20174;-74
2021/03/29 11:50:34;;;;;;;6.27;4.00;;;18.10;99.90;;;;;;5018945;28;20198;-73
2021/03/29 11:53:00;;;;;;;5.10;4.10;;;18.20;99.90;;;;;;5020833;28;20466;-74
2021/03/29 11:55:26;;;;;;;7.20;4.17;;;18.10;99.90;;;;;;5020801;28;20189;-74
2021/03/29 11:57:54;;;;;;;4.63;4.13;;;18.10;99.90;;;;;;5021916;28;20191;-74
2021/03/29 12:02:56;;;;;;;10.63;4.47;;;18.20;99.90;;;;;;5021821;28;20468;-74
2021/03/29 12:05:30;;;;;;;6.27;3.90;;;18.30;99.90;;;;;;5021892;28;20435;-74
2021/03/29 12:13:26;;;;;;;7.23;4.17;;;18.50;99.90;;;;;;5019568;28;20439;-74
2021/03/29 12:15:55;;;;;;;7.07;4.60;;;18.70;99.90;;;;;;5019828;28;20433;-74
2021/03/29 12:18:33;;;;;;;4.00;3.57;;;18.80;99.90;;;;;;5020770;28;20432;-74
2021/03/29 12:21:01;;;;;;;4.57;4.00;;;18.60;99.90;;;;;;5021612;28;20441;-74
2021/03/29 12:23:29;;;;;;;6.20;4.60;;;18.50;99.90;;;;;;5023263;28;20472;-75
2021/03/29 12:25:56;;;;;;;4.40;3.90;;;18.60;99.90;;;;;;5024290;28;20467;-75
2021/03/29 12:28:22;;;;;;;4.50;4.20;;;18.60;99.90;;;;;;5026369;28;20433;-74
2021/03/29 12:30:49;;;;;;;6.60;3.67;;;18.80;99.90;;;;;;5025300;28;20554;-74
2021/03/29 12:33:16;;;;;;;6.50;4.30;;;19.00;99.90;;;;;;5025611;28;20443;-75
2021/03/29 12:35:42;;;;;;;6.03;4.00;;;19.10;99.90;;;;;;5025134;28;20769;-74
2021/03/29 12:38:09;;;;;;;4.97;3.60;;;19.10;99.90;;;;;;5023288;28;20502;-73
2021/03/29 12:40:40;;;;;;;7.40;3.97;;;19.00;99.90;;;;;;5023203;28;20444;-74
2021/03/29 12:43:09;;;;;;;9.10;5.23;;;18.80;99.90;;;;;;5025047;28;20449;-74
2021/03/29 12:45:38;;;;;;;12.27;3.73;;;18.90;99.90;;;;;;5024916;28;20431;-74
2021/03/29 12:48:10;;;;;;;4.60;4.10;;;19.00;99.90;;;;;;5024028;28;20432;-73
2021/03/29 12:50:36;;;;;;;8.40;4.37;;;19.40;99.90;;;;;;5022561;28;20439;-74
2021/03/29 12:53:03;;;;;;;5.27;4.30;;;19.50;99.90;;;;;;5023029;28;20453;-74
2021/03/29 12:55:30;;;;;;;4.53;3.30;;;19.80;99.90;;;;;;5023718;28;20432;-73
2021/03/29 12:57:57;;;;;;;4.87;3.60;;;20.00;99.90;;;;;;5023218;28;20433;-73
2021/03/29 13:00:27;;;;;;;3.47;3.17;;;19.90;99.90;;;;;;5024891;28;20437;-74
2021/03/29 13:03:00;;;;;;;4.67;3.43;;;19.80;99.90;;;;;;5022020;28;20453;-74
2021/03/29 13:07:58;;;;;;;7.03;4.27;;;20.10;99.90;;;;;;5022283;28;20516;-74
2021/03/29 13:13:11;;;;;;;3.60;2.80;;;20.30;99.90;;;;;;5024211;28;20419;-74